• Join FlightAware (Why Join?)
  • Login
  • US Flag 
12:43PM EDT


 

Airport Tracker/Info


-or-


 

Live Flight TrackerFlight Track Log ✈ FFT403 ✈ 28-Apr-2013 ✈ KMDW - KDEN

Flight Track Log - Related Links

Times and Time Zones

All times are in EDT time to prevent confusion due to time zone crossing. See the FFT403 flight status page for this flight to view local times or setup timezone preferences in your user account.

Time Position Orientation Groundspeed Altitude Reporting Facility
EDT Latitude Longitude Course Direction KTS MPH feet Rate Location/Type
07:16AM 41.8000 -87.7333 270° West 150 173 1,800  Level Chicago TRACON
07:17AM 41.8000 -87.8000 270° West 227 261 3,000 2,100 Climbing Chicago TRACON
07:18AM 41.7833 -87.9000 257° West 273 314 6,000 3,120 Climbing Chicago TRACON
07:18AM 41.7772 -87.9372 258° West 267 307 7,200 3,180 Climbing Chicago Center
07:19AM 41.7739 -88.0417 268° West 283 326 10,300 2,640 Climbing Chicago Center
07:20AM 41.7697 -88.1547 267° West 303 349 12,600 2,160 Climbing Chicago Center
07:21AM 41.7661 -88.2803 268° West 336 387 14,700 2,100 Climbing Chicago Center
07:22AM 41.7611 -88.4169 267° West 365 420 16,900 2,160 Climbing Chicago Center
07:23AM 41.7558 -88.5578 267° West 380 437 19,100 2,160 Climbing Chicago Center
07:24AM 41.7442 -88.7025 264° West 390 449 21,300 2,040 Climbing Chicago Center
07:25AM 41.7281 -88.8517 262° West 401 461 23,300 1,560 Climbing Chicago Center
07:26AM 41.7114 -89.0053 262° West 415 478 24,500 1,380 Climbing Chicago Center
07:27AM 41.7031 -89.1692 266° West 439 505 26,100 1,620 Climbing Chicago Center
07:28AM 41.6992 -89.3661 269° West 444 511 27,800 1,440 Climbing Chicago Center
07:29AM 41.6944 -89.5325 268° West 452 520 29,100 1,620 Climbing Chicago Center
07:30AM 41.6878 -89.7036 267° West 451 519 31,100 1,740 Climbing Chicago Center
07:31AM 41.6825 -89.8669 268° West 444 511 32,700 1,560 Climbing Chicago Center
07:32AM 41.6772 -90.0292 268° West 439 505 34,300 1,560 Climbing Chicago Center
07:33AM 41.6714 -90.1858 267° West 426 490 35,900 1,500 Climbing Chicago Center
07:34AM 41.6644 -90.3422 267° West 424 488 37,400 1,020 Climbing Chicago Center
07:35AM 41.6575 -90.4919 266° West 414 476 38,000 240 Climbing Chicago Center
07:36AM 41.6525 -90.6303 267° West 410 472 38,000  Level Chicago Center
07:37AM 41.6458 -90.7906 267° West 424 488 38,000  Level Chicago Center
07:38AM 41.6364 -90.9864 266° West 440 506 38,000  Level Chicago Center
07:40AM 41.6294 -91.1447 267° West 434 499 38,000  Level Chicago Center
07:41AM 41.6214 -91.3075 266° West 439 505 38,000  Level Chicago Center
07:42AM 41.6136 -91.4661 266° West 432 497 38,000  Level Chicago Center
07:43AM 41.6058 -91.6253 266° West 432 497 38,000  Level Chicago Center
07:44AM 41.5964 -91.7836 265° West 430 495 38,000  Level Chicago Center
07:45AM 41.5886 -91.9417 266° West 429 494 38,000  Level Chicago Center
07:46AM 41.5803 -92.1000 266° West 430 495 38,000  Level Chicago Center
07:47AM 41.5703 -92.2567 265° West 426 490 38,000  Level Chicago Center
07:48AM 41.5617 -92.4158 266° West 432 497 38,000  Level Chicago Center
07:49AM 41.5528 -92.5733 266° West 431 496 38,000  Level Chicago Center
07:50AM 41.5433 -92.7311 265° West 429 494 38,000  Level Chicago Center
07:51AM 41.5328 -92.8933 265° West 428 493 38,000  Level Chicago Center
07:52AM 41.5208 -93.0839 265° West 430 495 38,000  Level Minneapolis Center
07:53AM 41.5103 -93.2411 265° West 430 495 38,000  Level Minneapolis Center
07:54AM 41.5003 -93.3981 265° West 429 494 38,000  Level Minneapolis Center
07:55AM 41.4903 -93.5542 265° West 428 493 38,000  Level Minneapolis Center
07:56AM 41.4811 -93.7092 266° West 425 489 38,000  Level Minneapolis Center
07:57AM 41.4692 -93.8683 264° West 432 497 38,000  Level Minneapolis Center
07:58AM 41.4575 -94.0258 264° West 432 497 38,000  Level Minneapolis Center
07:59AM 41.4472 -94.1822 265° West 432 497 38,000  Level Minneapolis Center
08:00AM 41.4350 -94.3389 264° West 429 494 38,000 -60 Level Minneapolis Center
08:01AM 41.4197 -94.4919 262° West 423 487 37,900  Descending Minneapolis Center
08:02AM 41.4083 -94.6467 264° West 420 483 38,000  Climbing Minneapolis Center
08:03AM 41.3958 -94.8300 265° West 416 479 38,000  Level Minneapolis Center
08:04AM 41.3850 -94.9858 265° West 420 483 38,000  Level Minneapolis Center
08:05AM 41.3722 -95.1422 264° West 424 488 38,000  Level Minneapolis Center
08:06AM 41.3578 -95.2989 263° West 427 491 38,000  Level Minneapolis Center
08:07AM 41.3450 -95.4544 264° West 424 488 38,000  Level Minneapolis Center
08:08AM 41.3303 -95.6117 263° West 426 490 38,000  Level Minneapolis Center
08:09AM 41.3200 -95.7550 265° West 426 490 38,000  Level Minneapolis Center
08:10AM 41.3056 -95.9111 263° West 425 489 38,000  Level Minneapolis Center
08:11AM 41.2911 -96.0681 263° West 426 490 38,000  Level Minneapolis Center
08:12AM 41.2769 -96.2269 263° West 430 495 38,000  Level Minneapolis Center
08:13AM 41.2631 -96.3794 263° West 431 496 38,100  Climbing Minneapolis Center
08:14AM 41.2481 -96.5367 263° West 429 494 38,000 -60 Descending Minneapolis Center
08:15AM 41.2292 -96.7233 262° West 427 491 38,000  Level Minneapolis Center
08:16AM 41.2147 -96.8772 263° West 422 486 38,000  Level Minneapolis Center
08:17AM 41.1997 -97.0322 263° West 424 488 38,000  Level Minneapolis Center
08:18AM 41.1833 -97.1861 262° West 422 486 38,000  Level Minneapolis Center
08:19AM 41.1683 -97.3408 263° West 422 486 38,000  Level Minneapolis Center
08:20AM 41.1519 -97.5022 262° West 424 488 38,000  Level Minneapolis Center
08:21AM 41.1356 -97.6575 262° West 425 489 38,000  Level Minneapolis Center
08:22AM 41.1189 -97.8114 262° West 423 487 38,000  Level Minneapolis Center
08:23AM 41.1036 -97.9678 263° West 425 489 38,000  Level Minneapolis Center
08:24AM 41.0856 -98.1208 261° West 422 486 38,000  Level Minneapolis Center
08:25AM 41.0694 -98.2747 262° West 421 484 38,000  Level Minneapolis Center
08:26AM 41.0531 -98.4303 262° West 423 487 38,000  Level Minneapolis Center
08:27AM 41.0364 -98.5742 261° West 421 484 38,000  Level Minneapolis Center
08:28AM 41.0194 -98.7289 262° West 423 487 38,000  Level Minneapolis Center
08:29AM 41.0008 -98.8842 261° West 427 491 38,000  Level Minneapolis Center
08:30AM 40.9844 -99.0394 262° West 426 490 38,000  Level Minneapolis Center
08:31AM 40.9639 -99.2144 261° West 424 488 38,000  Level Denver Center
08:32AM 40.9464 -99.3686 262° West 423 487 38,000  Level Denver Center
08:33AM 40.9283 -99.5231 261° West 424 488 38,000  Level Denver Center
08:34AM 40.9092 -99.6789 261° West 427 491 38,000  Level Denver Center
08:35AM 40.8903 -99.8356 261° West 430 495 38,000  Level Denver Center
08:36AM 40.8714 -99.9839 260° West 429 494 38,000  Level Denver Center
08:37AM 40.8531 -100.1336 261° West 430 495 38,000  Level Denver Center
08:38AM 40.8311 -100.3081 261° West 431 496 38,000  Level Denver Center
08:39AM 40.8125 -100.4572 261° West 430 495 38,000  Level Denver Center
08:40AM 40.7936 -100.6061 261° West 428 493 38,000  Level Denver Center
08:41AM 40.7672 -100.7697 258° West 432 497 38,000  Level Denver Center
08:42AM 40.7442 -100.9136 258° West 436 502 38,000  Level Denver Center
08:43AM 40.7153 -101.0875 258° West 435 501 38,000  Level Denver Center
08:44AM 40.6897 -101.2350 257° West 432 497 38,000  Level Denver Center
08:45AM 40.6636 -101.3808 257° West 428 493 38,000  Level Denver Center
08:46AM 40.6328 -101.5542 257° West 435 501 38,000  Level Denver Center
08:47AM 40.6064 -101.7022 257° West 435 501 38,000  Level Denver Center
08:48AM 40.5789 -101.8497 256° West 435 501 38,000  Level Denver Center
08:49AM 40.5525 -101.9989 257° West 438 504 38,000  Level Denver Center
08:50AM 40.5200 -102.1736 256° West 441 507 38,000  Level Denver Center
08:51AM 40.4925 -102.3242 257° West 442 509 38,000  Level Denver Center
08:52AM 40.4656 -102.4742 257° West 440 506 38,000 -480 Level Denver Center
08:53AM 40.4314 -102.6469 255° West 439 505 37,100 -1,500 Descending Denver Center
08:54AM 40.4058 -102.7906 257° West 433 498 35,000 -2,340 Descending Denver Center
08:55AM 40.3772 -102.9417 256° West 426 490 32,500 -2,520 Descending Denver Center
08:56AM 40.3483 -103.0925 256° West 424 488 30,000 -2,580 Descending Denver Center
08:57AM 40.3189 -103.2406 255° West 417 480 27,400 -2,580 Descending Denver Center
08:58AM 40.2914 -103.3836 256° West 405 466 24,900 -2,340 Descending Denver Center
08:59AM 40.2667 -103.5197 257° West 384 442 22,800 -1,980 Descending Denver Center
09:00AM 40.2400 -103.6478 255° West 364 419 21,000 -1,740 Descending Denver Center
09:01AM 40.2167 -103.7719 256° West 358 412 19,400 -1,680 Descending Denver Center
09:02AM 40.2031 -103.8939 262° West 319 367 17,700 -1,500 Descending Denver Center
09:03AM 40.2150 -104.0044 278° West 306 352 16,400 -1,440 Descending Denver Center
09:04AM 40.2258 -104.1117 278° West 298 343 14,900 -1,500 Descending Denver Center
09:05AM 40.2342 -104.2147 276° West 287 330 13,400 -1,440 Descending Denver Center
09:06AM 40.2439 -104.3189 277° West 288 331 12,100 -1,200 Descending Denver Center
09:07AM 40.2222 -104.4197 254° West 290 334 11,100 -1,020 Descending Denver Center
09:08AM 40.1906 -104.5183 247° West 294 338 10,100 -900 Descending Denver Center
09:09AM 40.1394 -104.5847 225° Southwest 271 312 9,400 -840 Descending Denver Center
09:10AM 40.0833 -104.6167 204° Southwest 246 283 8,600 -780 Descending Denver TRACON
09:11AM 40.0333 -104.6500 207° Southwest 218 251 8,100 -600 Descending Denver TRACON
09:11AM 40.0231 -104.6567 206° Southwest 220 253 7,900 -1,080 Descending Denver Center
09:12AM 39.9717 -104.6836 202° Southwest 182 209 6,700 -960 Descending Denver Center
09:13AM 39.9278 -104.6867 183° South 160 184 6,000 -720 Descending Denver Center
09:14AM 39.8928 -104.6872 181° South 139 160 5,300 -720 Descending Denver Center
09:16AM 39.8617 -104.6732 190° South  Level Estimated
09:23AM 39.8617 -104.6732 190° South  Level Estimated
09:24AM 39.8617 -104.6732 190° South  Level Estimated
09:25AM 39.8617 -104.6732 190° South  Level Estimated